createdAt,value
2023-07-18T00:00:19.269Z,100764.80
2023-07-18T00:03:07.441Z,100774.45
2023-07-18T00:05:37.450Z,100794.17
2023-07-18T00:08:05.999Z,100795.45
2023-07-18T00:10:34.653Z,100793.85
2023-07-18T00:13:04.072Z,100794.29
2023-07-18T00:15:33.057Z,100788.09
2023-07-18T00:18:03.149Z,100785.23
2023-07-18T00:20:31.869Z,100787.05
2023-07-18T00:23:00.581Z,100782.41
2023-07-18T00:25:28.827Z,100784.30
2023-07-18T00:27:56.725Z,100787.48
2023-07-18T00:30:25.467Z,100786.05
2023-07-18T00:32:53.412Z,100782.20
2023-07-18T00:35:21.610Z,100784.83
2023-07-18T00:37:50.773Z,100785.80
2023-07-18T00:40:18.670Z,100786.73
2023-07-18T00:42:51.323Z,100785.57
2023-07-18T00:45:21.421Z,100790.73
2023-07-18T00:47:50.229Z,100795.51
2023-07-18T00:50:19.693Z,100796.05
2023-07-18T00:52:50.845Z,100790.53
2023-07-18T00:55:20.094Z,100797.88
2023-07-18T00:57:49.214Z,100803.21
2023-07-18T01:00:18.430Z,100810.05
2023-07-18T01:02:47.735Z,100814.70
2023-07-18T01:05:19.314Z,100819.05
2023-07-18T01:07:48.716Z,100818.92
2023-07-18T01:10:27.529Z,100820.25
2023-07-18T01:12:58.830Z,100827.17
2023-07-18T01:15:34.543Z,100824.85
2023-07-18T01:18:09.387Z,100833.61
2023-07-18T01:20:37.739Z,100836.88
2023-07-18T01:23:05.798Z,100837.79
2023-07-18T01:25:35.146Z,100841.13
2023-07-18T01:28:04.470Z,100842.98
2023-07-18T01:30:32.505Z,100843.77
2023-07-18T01:33:00.773Z,100843.42
2023-07-18T01:35:28.873Z,100843.52
2023-07-18T01:37:58.690Z,100841.91
2023-07-18T01:40:28.532Z,100842.54
2023-07-18T01:42:58.661Z,100838.95
2023-07-18T01:45:31.089Z,100841.02
2023-07-18T01:48:03.489Z,100839.17
2023-07-18T01:50:33.753Z,100840.80
2023-07-18T01:53:01.721Z,100845.98
2023-07-18T01:55:29.908Z,100845.62
2023-07-18T01:58:01.770Z,100849.77
2023-07-18T02:00:29.920Z,100853.80
2023-07-18T02:02:58.975Z,100854.77
2023-07-18T02:05:29.976Z,100861.61
2023-07-18T02:08:01.322Z,100865.65
2023-07-18T02:10:29.261Z,100871.95
2023-07-18T02:12:59.371Z,100866.50
2023-07-18T02:15:27.504Z,100871.05
2023-07-18T02:17:55.841Z,100871.40
2023-07-18T02:20:24.279Z,100867.58
2023-07-18T02:22:52.504Z,100868.37
2023-07-18T02:25:20.598Z,100871.67
2023-07-18T02:27:48.670Z,100870.43
2023-07-18T02:30:17.028Z,100872.45
2023-07-18T02:32:45.640Z,100876.66
2023-07-18T02:35:20.010Z,100879.80
2023-07-18T02:37:48.859Z,100879.67
2023-07-18T02:40:18.570Z,100886.83
2023-07-18T02:42:47.158Z,100886.67
2023-07-18T02:45:15.621Z,100890.64
2023-07-18T02:47:43.705Z,100887.77
2023-07-18T02:50:11.777Z,100894.11
2023-07-18T02:52:40.418Z,100895.77
2023-07-18T02:55:08.876Z,100902.42
2023-07-18T02:57:37.136Z,100902.92
2023-07-18T03:00:12.410Z,100910.54
2023-07-18T03:02:40.812Z,100912.36
2023-07-18T03:05:09.128Z,100909.46
2023-07-18T03:07:37.049Z,100912.20
2023-07-18T03:10:06.382Z,100916.41
2023-07-18T03:12:34.302Z,100918.46
2023-07-18T03:15:03.298Z,100921.50
2023-07-18T03:17:31.148Z,100924.33
2023-07-18T03:19:59.448Z,100923.45
2023-07-18T03:22:27.371Z,100924.31
2023-07-18T03:25:06.519Z,100929.88
2023-07-18T03:27:34.636Z,100936.35
2023-07-18T03:30:02.725Z,100939.74
2023-07-18T03:32:31.404Z,100944.28
2023-07-18T03:35:00.459Z,100945.96
2023-07-18T03:37:29.625Z,100947.52
2023-07-18T03:39:57.576Z,100950.36
2023-07-18T03:42:25.532Z,100952.43
2023-07-18T03:44:54.212Z,100956.26
2023-07-18T03:47:22.103Z,100957.80
2023-07-18T03:49:51.743Z,100963.02
2023-07-18T03:52:19.764Z,100967.55
2023-07-18T03:54:47.621Z,100971.48
2023-07-18T03:57:15.583Z,100977.05
2023-07-18T03:59:43.474Z,100979.25
2023-07-18T04:02:13.450Z,100983.20
2023-07-18T04:04:42.586Z,100985.37
2023-07-18T04:07:10.669Z,100986.78
2023-07-18T04:09:39.797Z,100985.71
2023-07-18T04:12:08.434Z,100985.67
2023-07-18T04:14:39.003Z,100986.38
2023-07-18T04:17:06.925Z,100992.09
2023-07-18T04:19:34.794Z,100989.45
2023-07-18T04:22:03.190Z,100995.58
2023-07-18T04:24:32.414Z,100997.25
2023-07-18T04:27:00.325Z,100996.50
2023-07-18T04:29:28.315Z,100995.81
2023-07-18T04:31:56.251Z,100994.09
2023-07-18T04:34:25.332Z,101001.96
2023-07-18T04:36:53.405Z,100997.36
2023-07-18T04:39:21.865Z,100997.73
2023-07-18T04:41:55.779Z,100996.16
2023-07-18T04:44:24.747Z,100997.47
2023-07-18T04:46:55.559Z,100997.34
2023-07-18T04:49:23.679Z,100998.02
2023-07-18T04:51:52.774Z,101001.98
2023-07-18T04:54:20.798Z,101005.90
2023-07-18T04:56:48.734Z,101003.35
2023-07-18T04:59:16.578Z,101005.75
2023-07-18T05:01:44.553Z,101008.81
2023-07-18T05:04:12.461Z,101006.24
2023-07-18T05:06:40.309Z,101005.14
2023-07-18T05:09:09.366Z,101006.61
2023-07-18T05:11:37.251Z,101004.94
2023-07-18T05:14:05.201Z,101007.27
2023-07-18T05:16:33.116Z,101006.80
2023-07-18T05:19:01.040Z,101010.23
2023-07-18T05:21:29.420Z,101011.92
2023-07-18T05:23:57.674Z,101014.04
2023-07-18T05:26:25.941Z,101017.24
2023-07-18T05:28:53.943Z,101022.72
2023-07-18T05:31:22.379Z,101025.41
2023-07-18T05:33:51.490Z,101020.99
2023-07-18T05:36:19.343Z,101028.45
2023-07-18T05:38:47.198Z,101030.24
2023-07-18T05:41:15.071Z,101028.06
2023-07-18T05:43:43.341Z,101028.14
2023-07-18T05:46:11.682Z,101027.58
2023-07-18T05:48:39.633Z,101027.83
2023-07-18T05:51:08.575Z,101028.93
2023-07-18T05:53:36.495Z,101031.89
2023-07-18T05:56:04.487Z,101035.67
2023-07-18T05:58:32.389Z,101030.70
2023-07-18T06:01:00.345Z,101031.42
2023-07-18T06:03:29.453Z,101031.32
2023-07-18T06:05:57.611Z,101032.23
2023-07-18T06:08:25.521Z,101030.48
2023-07-18T06:10:59.788Z,101035.51
2023-07-18T06:13:28.118Z,101033.73
2023-07-18T06:15:56.389Z,101041.11
2023-07-18T06:18:25.653Z,101043.62
2023-07-18T06:20:54.901Z,101043.95
2023-07-18T06:23:23.374Z,101042.26
2023-07-18T06:25:54.490Z,101048.05
2023-07-18T06:28:25.836Z,101051.40
2023-07-18T06:30:58.341Z,101049.20
2023-07-18T06:33:27.125Z,101052.30
2023-07-18T06:35:58.032Z,101052.55
2023-07-18T06:38:26.204Z,101051.77
2023-07-18T06:40:54.234Z,101053.95
2023-07-18T06:43:22.622Z,101053.11
2023-07-18T06:45:51.164Z,101058.73
2023-07-18T06:48:19.033Z,101056.89
2023-07-18T06:51:00.100Z,101046.58
2023-07-18T06:53:33.694Z,101044.29
2023-07-18T06:56:03.554Z,101043.08
2023-07-18T06:58:32.233Z,101047.52
2023-07-18T07:01:01.290Z,101051.73
2023-07-18T07:03:31.295Z,101052.34
2023-07-18T07:06:00.024Z,101049.73
2023-07-18T07:08:29.507Z,101052.08
2023-07-18T07:11:07.567Z,101052.17
2023-07-18T07:13:41.052Z,101057.25
2023-07-18T07:16:09.841Z,101052.02
2023-07-18T07:18:37.949Z,101054.26
2023-07-18T07:21:06.915Z,101053.27
2023-07-18T07:23:35.774Z,101048.36
2023-07-18T07:26:07.781Z,101045.15
2023-07-18T07:28:45.154Z,101050.02
2023-07-18T07:31:16.867Z,101040.37
2023-07-18T07:33:50.818Z,101045.38
2023-07-18T07:36:24.366Z,101041.18
2023-07-18T07:38:56.524Z,101045.54
2023-07-18T07:41:26.220Z,101046.46
2023-07-18T07:43:55.632Z,101048.93
2023-07-18T07:46:23.994Z,101047.90
2023-07-18T07:48:52.014Z,101046.73
2023-07-18T07:51:20.089Z,101046.72
2023-07-18T07:53:48.289Z,101045.54
2023-07-18T07:56:16.328Z,101047.60
2023-07-18T07:58:45.670Z,101043.06
2023-07-18T08:01:21.650Z,101043.10
2023-07-18T08:03:50.503Z,101037.52
2023-07-18T08:06:18.566Z,101035.63
2023-07-18T08:08:46.401Z,101038.20
2023-07-18T08:11:14.214Z,101033.95
2023-07-18T08:13:42.023Z,101034.48
2023-07-18T08:16:10.052Z,101026.40
2023-07-18T08:18:37.944Z,101024.27
2023-07-18T08:21:05.796Z,101025.09
2023-07-18T08:23:33.655Z,101023.52
2023-07-18T08:26:01.561Z,101022.04
2023-07-18T08:28:29.587Z,101025.77
2023-07-18T08:30:57.495Z,101027.13
2023-07-18T08:33:25.412Z,101029.50
2023-07-18T08:35:54.617Z,101022.25
2023-07-18T08:38:22.524Z,101022.77
2023-07-18T08:40:50.361Z,101010.63
2023-07-18T08:43:19.835Z,101008.30
2023-07-18T08:45:48.680Z,101008.10
2023-07-18T08:48:16.779Z,100994.00
2023-07-18T08:50:45.678Z,101006.78
2023-07-18T08:53:13.557Z,101006.03
2023-07-18T08:55:41.826Z,101000.51
2023-07-18T08:58:10.170Z,100997.02
2023-07-18T09:00:38.031Z,100998.22
2023-07-18T09:03:05.999Z,100993.59
2023-07-18T09:05:39.072Z,100992.17
2023-07-18T09:08:07.527Z,100992.24
2023-07-18T09:10:35.632Z,100988.06
2023-07-18T09:13:08.817Z,100976.15
2023-07-18T09:15:38.488Z,100974.71
2023-07-18T09:18:10.150Z,100974.05
2023-07-18T09:20:39.055Z,100972.77
2023-07-18T09:23:09.657Z,100975.16
2023-07-18T09:25:44.899Z,100975.45
2023-07-18T09:28:13.474Z,100975.02
2023-07-18T09:30:42.038Z,100969.28
2023-07-18T09:33:10.042Z,100967.61
2023-07-18T09:35:40.820Z,100958.37
2023-07-18T09:38:08.983Z,100958.09
2023-07-18T09:40:40.495Z,100963.45
2023-07-18T09:43:09.099Z,100961.00
2023-07-18T09:45:37.842Z,100963.28
2023-07-18T09:48:08.493Z,100960.80
2023-07-18T09:50:41.161Z,100962.27
2023-07-18T09:53:12.326Z,100961.19
2023-07-18T09:55:42.303Z,100961.06
2023-07-18T09:58:13.296Z,100954.70
2023-07-18T10:00:45.826Z,100960.73
2023-07-18T10:03:15.440Z,100958.23
2023-07-18T10:05:50.351Z,100952.63
2023-07-18T10:08:18.999Z,100951.19
2023-07-18T10:11:04.843Z,100943.04
2023-07-18T10:14:03.810Z,100942.43
2023-07-18T10:16:36.073Z,100945.33
2023-07-18T10:19:24.488Z,100943.19
2023-07-18T10:21:53.613Z,100936.31
2023-07-18T10:24:21.971Z,100932.03
2023-07-18T10:27:20.811Z,100938.14
2023-07-18T10:30:07.197Z,100932.46
2023-07-18T10:32:37.676Z,100929.55
2023-07-18T10:35:11.906Z,100930.56
2023-07-18T10:37:52.589Z,100924.45
2023-07-18T10:40:42.046Z,100923.96
2023-07-18T10:43:12.686Z,100929.03
2023-07-18T10:45:43.077Z,100926.23
2023-07-18T10:48:22.310Z,100919.95
2023-07-18T10:50:50.705Z,100912.38
2023-07-18T10:53:20.875Z,100898.84
2023-07-18T10:55:49.879Z,100897.67
2023-07-18T10:58:21.472Z,100892.19
2023-07-18T11:00:51.241Z,100894.30
2023-07-18T11:03:32.625Z,100904.48
2023-07-18T11:06:08.066Z,100894.59
2023-07-18T11:08:38.910Z,100896.10
2023-07-18T11:11:11.796Z,100892.63
2023-07-18T11:13:44.621Z,100883.11
2023-07-18T11:16:22.866Z,100891.17
2023-07-18T11:18:55.574Z,100883.98
2023-07-18T11:21:29.487Z,100881.00
2023-07-18T11:23:59.991Z,100875.27
2023-07-18T11:26:29.119Z,100874.90
2023-07-18T11:28:58.859Z,100878.36
2023-07-18T11:34:06.948Z,100879.58
2023-07-18T11:36:40.633Z,100876.15
2023-07-18T11:39:23.487Z,100872.55
2023-07-18T11:41:53.891Z,100867.15
2023-07-18T11:44:28.046Z,100863.30
2023-07-18T11:46:58.265Z,100868.01
2023-07-18T11:49:42.519Z,100850.08
2023-07-18T11:52:19.566Z,100860.89
2023-07-18T11:54:53.017Z,100858.63
2023-07-18T11:57:25.896Z,100855.26
2023-07-18T11:59:58.166Z,100845.40
2023-07-18T12:02:27.658Z,100846.17
2023-07-18T12:04:59.822Z,100846.16
2023-07-18T12:07:27.874Z,100841.92
2023-07-18T12:09:55.741Z,100849.63
2023-07-18T12:12:24.933Z,100844.90
2023-07-18T12:14:53.876Z,100841.56
2023-07-18T12:17:22.241Z,100840.48
2023-07-18T12:19:50.517Z,100843.23
2023-07-18T12:22:19.247Z,100840.11
2023-07-18T12:24:48.445Z,100836.26
2023-07-18T12:27:17.631Z,100829.14
2023-07-18T12:29:46.660Z,100826.17
2023-07-18T12:32:17.453Z,100827.92
2023-07-18T12:34:48.586Z,100817.81
2023-07-18T12:37:18.044Z,100812.09
2023-07-18T12:39:46.284Z,100804.14
2023-07-18T12:42:14.541Z,100795.38
2023-07-18T12:44:45.781Z,100796.27
2023-07-18T12:47:14.239Z,100802.41
2023-07-18T12:52:14.431Z,100787.83
2023-07-18T12:54:42.378Z,100792.89
2023-07-18T12:57:11.010Z,100790.34
2023-07-18T12:59:39.072Z,100787.73
2023-07-18T13:02:07.277Z,100781.75
2023-07-18T13:04:35.222Z,100780.81
2023-07-18T13:07:03.114Z,100773.77
2023-07-18T13:09:31.977Z,100769.41
2023-07-18T13:12:00.141Z,100761.70
2023-07-18T13:14:28.061Z,100771.33
2023-07-18T13:16:55.897Z,100764.63
2023-07-18T13:19:23.855Z,100771.55
2023-07-18T13:21:54.326Z,100765.42
2023-07-18T13:24:23.070Z,100761.14
2023-07-18T13:26:51.246Z,100759.11
2023-07-18T13:29:19.318Z,100755.98
2023-07-18T13:31:47.202Z,100754.25
2023-07-18T13:34:16.353Z,100748.99
2023-07-18T13:36:44.494Z,100744.48
2023-07-18T13:39:12.399Z,100746.60
2023-07-18T13:41:40.413Z,100747.38
2023-07-18T13:44:08.259Z,100742.27
2023-07-18T13:46:36.716Z,100741.70
2023-07-18T13:49:04.864Z,100741.04
2023-07-18T13:51:32.996Z,100741.60
2023-07-18T13:54:00.988Z,100741.48
2023-07-18T13:56:29.785Z,100746.33
2023-07-18T13:58:57.673Z,100741.38
2023-07-18T14:01:25.519Z,100734.90
2023-07-18T14:03:53.563Z,100742.96
2023-07-18T14:06:22.165Z,100736.78
2023-07-18T14:08:50.989Z,100739.42
2023-07-18T14:11:18.831Z,100738.37
2023-07-18T14:13:47.429Z,100740.88
2023-07-18T14:16:15.496Z,100745.46
2023-07-18T14:18:43.901Z,100743.09
2023-07-18T14:21:11.888Z,100745.19
2023-07-18T14:23:39.811Z,100748.10
2023-07-18T14:26:07.722Z,100741.95
2023-07-18T14:28:35.617Z,100739.95
2023-07-18T14:31:03.485Z,100741.02
2023-07-18T14:33:32.503Z,100735.95
2023-07-18T14:36:03.844Z,100727.69
2023-07-18T14:38:31.899Z,100719.23
2023-07-18T14:40:59.974Z,100718.55
2023-07-18T14:43:33.520Z,100722.92
2023-07-18T14:46:04.412Z,100721.73
2023-07-18T14:48:33.213Z,100715.56
2023-07-18T14:51:01.162Z,100705.92
2023-07-18T14:53:29.085Z,100702.95
2023-07-18T14:55:56.941Z,100704.21
2023-07-18T14:58:24.972Z,100697.89
2023-07-18T15:00:53.036Z,100691.69
2023-07-18T15:03:20.920Z,100683.57
2023-07-18T15:05:48.953Z,100681.00
2023-07-18T15:08:16.942Z,100678.73
2023-07-18T15:10:44.797Z,100676.57
2023-07-18T15:13:12.667Z,100679.72
2023-07-18T15:15:41.532Z,100684.27
2023-07-18T15:18:10.288Z,100676.00
2023-07-18T15:20:38.325Z,100675.93
2023-07-18T15:23:06.424Z,100675.77
2023-07-18T15:25:34.760Z,100678.95
2023-07-18T15:28:02.722Z,100680.21
2023-07-18T15:30:30.819Z,100681.21
2023-07-18T15:33:08.892Z,100676.60
2023-07-18T15:35:46.963Z,100673.25
2023-07-18T15:38:14.802Z,100671.63
2023-07-18T15:40:42.785Z,100674.46
2023-07-18T15:43:10.726Z,100674.29
2023-07-18T15:45:38.686Z,100674.80
2023-07-18T15:48:06.545Z,100666.11
2023-07-18T15:50:34.968Z,100664.30
2023-07-18T15:53:03.221Z,100658.61
2023-07-18T15:55:31.317Z,100653.01
2023-07-18T15:57:59.174Z,100648.94
2023-07-18T16:00:27.529Z,100644.65
2023-07-18T16:02:55.485Z,100636.11
2023-07-18T16:05:23.442Z,100632.27
2023-07-18T16:07:51.420Z,100626.73
2023-07-18T16:10:19.944Z,100625.66
2023-07-18T16:12:47.907Z,100624.23
2023-07-18T16:15:16.060Z,100617.84
2023-07-18T16:17:44.011Z,100612.14
2023-07-18T16:20:12.906Z,100607.34
2023-07-18T16:22:49.197Z,100602.98
2023-07-18T16:25:17.200Z,100598.83
2023-07-18T16:27:47.071Z,100596.15
2023-07-18T16:30:16.084Z,100594.16
2023-07-18T16:32:44.273Z,100594.54
2023-07-18T16:35:12.384Z,100587.27
2023-07-18T16:37:40.677Z,100585.05
2023-07-18T16:40:10.945Z,100580.45
2023-07-18T16:42:38.829Z,100574.46
2023-07-18T16:45:07.624Z,100570.03
2023-07-18T16:47:35.590Z,100572.52
2023-07-18T16:50:03.734Z,100576.27
2023-07-18T16:52:31.715Z,100573.81
2023-07-18T16:54:59.658Z,100568.36
2023-07-18T16:57:27.580Z,100565.71
2023-07-18T16:59:55.510Z,100563.38
2023-07-18T17:02:23.510Z,100558.51
2023-07-18T17:04:51.499Z,100560.73
2023-07-18T17:07:19.583Z,100560.52
2023-07-18T17:09:47.482Z,100548.49
2023-07-18T17:12:15.346Z,100549.83
2023-07-18T17:14:43.258Z,100548.46
2023-07-18T17:17:11.174Z,100545.91
2023-07-18T17:19:49.157Z,100546.60
2023-07-18T17:22:27.391Z,100549.19
2023-07-18T17:24:55.480Z,100551.80
2023-07-18T17:27:23.795Z,100550.53
2023-07-18T17:29:51.714Z,100557.34
2023-07-18T17:32:19.693Z,100558.90
2023-07-18T17:34:47.766Z,100557.41
2023-07-18T17:37:16.843Z,100558.36
2023-07-18T17:39:47.430Z,100557.86
2023-07-18T17:42:15.383Z,100558.48
2023-07-18T17:44:43.864Z,100554.61
2023-07-18T17:47:11.718Z,100550.96
2023-07-18T17:49:39.699Z,100545.47
2023-07-18T17:52:07.970Z,100533.27
2023-07-18T17:54:35.917Z,100535.84
2023-07-18T17:57:04.212Z,100533.04
2023-07-18T17:59:32.231Z,100529.98
2023-07-18T18:02:00.247Z,100526.72
2023-07-18T18:04:28.164Z,100531.82
2023-07-18T18:06:56.224Z,100532.46
2023-07-18T18:09:24.093Z,100532.67
2023-07-18T18:11:53.975Z,100533.10
2023-07-18T18:14:22.184Z,100533.02
2023-07-18T18:16:51.361Z,100530.68
2023-07-18T18:19:19.375Z,100524.59
2023-07-18T18:21:48.773Z,100516.78
2023-07-18T18:24:16.995Z,100518.83
2023-07-18T18:26:44.865Z,100513.82
2023-07-18T18:29:14.066Z,100520.63
2023-07-18T18:31:42.589Z,100519.67
2023-07-18T18:34:10.485Z,100519.46
2023-07-18T18:36:38.867Z,100516.49
2023-07-18T18:39:06.724Z,100512.73
2023-07-18T18:41:34.571Z,100509.73
2023-07-18T18:44:02.563Z,100511.14
2023-07-18T18:46:30.583Z,100507.60
2023-07-18T18:49:01.576Z,100505.01
2023-07-18T18:51:31.733Z,100504.29
2023-07-18T18:53:59.674Z,100504.13
2023-07-18T18:56:27.838Z,100492.04
2023-07-18T18:58:56.225Z,100489.78
2023-07-18T19:01:24.198Z,100487.66
2023-07-18T19:03:52.144Z,100486.14
2023-07-18T19:06:20.491Z,100484.90
2023-07-18T19:08:48.476Z,100488.95
2023-07-18T19:11:16.836Z,100491.29
2023-07-18T19:13:44.744Z,100490.50
2023-07-18T19:16:19.160Z,100489.45
2023-07-18T19:18:56.838Z,100490.86
2023-07-18T19:21:24.745Z,100497.42
2023-07-18T19:23:52.553Z,100495.51
2023-07-18T19:26:20.496Z,100492.39
2023-07-18T19:28:48.408Z,100494.68
2023-07-18T19:31:16.315Z,100498.98
2023-07-18T19:33:44.291Z,100490.67
2023-07-18T19:36:12.276Z,100502.91
2023-07-18T19:38:40.613Z,100503.67
2023-07-18T19:41:08.638Z,100502.89
2023-07-18T19:43:36.555Z,100502.31
2023-07-18T19:46:05.787Z,100497.11
2023-07-18T19:48:33.742Z,100499.05
2023-07-18T19:51:01.597Z,100503.19
2023-07-18T19:53:29.551Z,100504.80
2023-07-18T19:55:57.652Z,100503.65
2023-07-18T19:58:25.603Z,100501.56
2023-07-18T20:00:53.479Z,100501.52
2023-07-18T20:03:21.450Z,100502.27
2023-07-18T20:05:49.552Z,100506.41
2023-07-18T20:08:17.724Z,100506.88
2023-07-18T20:10:45.592Z,100514.69
2023-07-18T20:13:13.454Z,100516.10
2023-07-18T20:15:41.553Z,100515.52
2023-07-18T20:18:10.763Z,100513.72
2023-07-18T20:20:38.738Z,100521.83
2023-07-18T20:23:07.178Z,100522.52
2023-07-18T20:25:35.141Z,100528.73
2023-07-18T20:28:03.198Z,100530.87
2023-07-18T20:30:31.263Z,100528.56
2023-07-18T20:33:03.233Z,100528.03
2023-07-18T20:35:31.521Z,100530.84
2023-07-18T20:38:00.861Z,100530.64
2023-07-18T20:40:30.106Z,100533.14
2023-07-18T20:42:58.122Z,100531.91
2023-07-18T20:45:26.525Z,100529.67
2023-07-18T20:47:54.479Z,100522.88
2023-07-18T20:50:22.439Z,100532.59
2023-07-18T20:52:50.517Z,100536.53
2023-07-18T20:55:18.532Z,100531.11
2023-07-18T20:57:46.522Z,100528.70
2023-07-18T21:00:16.466Z,100528.95
2023-07-18T21:02:44.845Z,100529.65
2023-07-18T21:05:13.083Z,100525.49
2023-07-18T21:07:40.970Z,100523.45
2023-07-18T21:10:09.538Z,100518.09
2023-07-18T21:12:37.378Z,100520.28
2023-07-18T21:15:05.966Z,100521.65
2023-07-18T21:17:33.848Z,100522.15
2023-07-18T21:20:01.894Z,100524.75
2023-07-18T21:22:29.709Z,100525.71
2023-07-18T21:24:57.685Z,100526.20
2023-07-18T21:27:25.635Z,100526.71
2023-07-18T21:29:56.340Z,100527.52
2023-07-18T21:32:24.230Z,100527.96
2023-07-18T21:34:52.033Z,100526.55
2023-07-18T21:37:19.871Z,100527.30
2023-07-18T21:39:47.808Z,100529.92
2023-07-18T21:42:15.641Z,100526.08
2023-07-18T21:44:43.456Z,100525.14
2023-07-18T21:47:12.151Z,100526.23
2023-07-18T21:49:40.084Z,100520.71
2023-07-18T21:52:10.930Z,100522.05
2023-07-18T21:54:38.748Z,100521.11
2023-07-18T21:57:06.780Z,100516.11
2023-07-18T21:59:35.419Z,100518.67
2023-07-18T22:02:03.625Z,100519.48
2023-07-18T22:04:31.537Z,100522.20
2023-07-18T22:06:59.558Z,100519.97
2023-07-18T22:09:27.466Z,100515.77
2023-07-18T22:11:58.098Z,100512.11
2023-07-18T22:14:26.025Z,100506.75
2023-07-18T22:16:56.484Z,100510.75
2023-07-18T22:19:24.372Z,100506.80
2023-07-18T22:21:52.207Z,100507.25
2023-07-18T22:24:20.801Z,100501.59
2023-07-18T22:26:53.879Z,100500.05
2023-07-18T22:29:21.980Z,100499.38
2023-07-18T22:31:49.872Z,100498.62
2023-07-18T22:34:17.731Z,100499.73
2023-07-18T22:36:45.750Z,100498.77
2023-07-18T22:39:29.549Z,100500.14
2023-07-18T22:42:19.857Z,100497.21
2023-07-18T22:44:49.415Z,100495.87
2023-07-18T22:47:17.701Z,100494.67
2023-07-18T22:49:47.134Z,100494.72
2023-07-18T22:52:19.382Z,100495.84
2023-07-18T22:54:49.043Z,100490.34
2023-07-18T22:57:17.658Z,100485.86
2023-07-18T22:59:48.215Z,100483.11
2023-07-18T23:02:16.747Z,100478.75
2023-07-18T23:04:44.650Z,100480.07
2023-07-18T23:07:12.892Z,100478.60
2023-07-18T23:09:40.787Z,100475.63
2023-07-18T23:12:12.519Z,100474.02
2023-07-18T23:14:40.535Z,100470.40
2023-07-18T23:17:09.172Z,100462.45
2023-07-18T23:19:37.166Z,100461.37
2023-07-18T23:22:05.930Z,100460.15
2023-07-18T23:24:33.895Z,100452.61
2023-07-18T23:27:01.803Z,100456.48
2023-07-18T23:29:32.132Z,100447.90
2023-07-18T23:32:01.270Z,100448.68
2023-07-18T23:34:29.194Z,100441.44
2023-07-18T23:36:57.302Z,100439.68
2023-07-18T23:39:25.229Z,100441.77
2023-07-18T23:41:55.453Z,100438.48
2023-07-18T23:44:23.484Z,100437.02
2023-07-18T23:46:51.316Z,100434.80
2023-07-18T23:49:19.177Z,100434.71
2023-07-18T23:51:47.044Z,100436.33
2023-07-18T23:54:14.957Z,100433.39
2023-07-18T23:56:42.884Z,100428.36
2023-07-18T23:59:10.760Z,100421.47
